Date,TemperatureHighF,TemperatureAvgF,TemperatureLowF,DewpointHighF,DewpointAvgF,DewpointLowF,HumidityHigh,HumidityAvg,HumidityLow,PressureMaxIn,PressureMinIn,WindSpeedMaxMPH,WindSpeedAvgMPH,GustSpeedMaxMPH,PrecipitationSumIn
2013-1-1,32.9,27.3,22.5,32.2,4.6,-7.2,98,40,23,30.09,29.94,10,2,10,0.00
2013-1-2,24.8,22.7,21.4,2.7,-3.1,-6.5,42,32,27,30.21,30.03,11,3,11,0.00
2013-1-3,30.4,24.2,19.0,17.1,0.6,-9.0,59,36,23,30.18,30.06,13,4,13,0.00
2013-1-4,35.6,29.6,27.3,13.5,1.5,-5.7,53,30,22,30.15,30.03,17,5,17,0.00
2013-1-5,34.3,30.2,27.3,11.3,4.8,-0.1,46,34,25,30.36,30.09,15,4,15,0.00
2013-1-6,36.3,34.4,33.6,33.8,16.7,3.5,98,53,27,30.18,29.97,14,3,14,0.00
2013-1-7,35.4,31.4,27.9,33.3,13.4,3.4,98,50,27,30.41,30.18,20,4,20,0.00
2013-1-8,43.3,34.1,27.1,6.3,3.3,0.2,37,27,20,30.33,30.21,14,4,14,0.00
2013-1-9,51.3,41.3,34.7,19.6,7.7,1.2,44,25,19,30.44,30.12,18,5,18,0.17
2013-1-10,46.4,34.7,24.1,37.4,14.7,2.4,98,52,19,30.62,30.27,10,0,12,0.00
2013-1-11,51.3,47.0,41.5,49.6,28.1,4.5,97,58,19,30.27,29.88,20,6,20,0.25
2013-1-12,61.3,54.6,48.0,53.8,49.2,45.3,98,83,57,30.06,29.97,15,4,15,0.00
2013-1-13,65.3,53.9,39.7,54.3,48.1,38.6,98,82,58,29.97,29.79,23,4,23,0.08
2013-1-14,39.7,31.3,27.1,39.2,16.3,1.9,98,58,33,30.41,29.97,13,2,13,0.08
2013-1-15,33.8,27.9,25.0,6.1,0.9,-5.0,39,31,23,30.41,30.12,7,1,7,0.00
2013-1-16,37.6,32.0,27.9,13.4,6.4,-1.0,45,34,22,30.12,29.88,15,2,15,0.00
2013-1-17,35.1,32.0,23.2,23.5,8.0,-6.7,83,37,24,30.18,29.94,13,3,13,0.00
2013-1-18,35.6,25.1,18.7,0.5,-6.6,-11.3,32,24,22,30.47,30.03,24,6,24,0.00
2013-1-19,52.0,43.6,35.4,10.7,5.3,0.4,22,20,18,30.06,29.68,21,7,28,0.00
2013-1-20,47.7,29.0,21.2,7.4,-2.5,-8.6,52,26,19,30.12,29.62,27,5,27,0.17
2013-1-21,23.2,18.2,11.5,14.8,5.6,-9.1,85,62,25,30.09,29.91,13,2,13,0.00
2013-1-22,11.5,8.6,6.4,6.5,3.7,1.4,80,80,80,30.21,29.97,24,5,24,0.00
2013-1-23,14.2,10.9,9.1,8.8,-1.0,-14.4,80,62,26,30.24,30.06,17,4,17,0.00
2013-1-24,21.6,14.3,6.1,-0.2,-11.8,-20.9,52,30,25,30.53,30.03,10,2,10,0.00
2013-1-25,18.3,13.4,7.0,-2.7,-11.1,-19.9,44,32,26,30.47,30.06,9,2,9,0.00
2013-1-26,27.1,21.1,14.4,6.0,0.2,-2.6,48,40,32,30.41,30.06,8,2,8,0.00
2013-1-27,34.5,26.9,21.2,2.7,-2.1,-5.9,40,28,22,30.53,30.30,10,2,10,0.00
2013-1-28,47.1,38.8,28.8,46.6,32.9,2.6,98,82,31,30.30,29.94,20,5,20,0.50
2013-1-29,61.7,49.0,36.9,55.7,47.2,36.3,98,94,59,30.06,29.74,25,4,25,0.50
2013-1-30,64.0,58.7,37.4,57.0,48.6,36.6,98,71,49,29.74,29.23,24,8,24,0.29
2013-1-31,37.4,26.2,19.8,36.7,12.2,-5.4,98,59,30,29.85,29.29,24,6,24,0.12
2013-2-1,21.2,17.8,13.3,9.9,-3.5,-14.4,79,40,25,30.27,29.79,17,5,17,0.00
2013-2-2,20.7,16.2,11.3,10.9,-3.7,-12.8,66,41,32,30.24,29.97,15,5,15,0.00
2013-2-3,24.4,19.0,16.3,10.8,4.8,-6.0,76,55,27,29.97,29.85,13,2,13,0.00
2013-2-4,25.9,20.0,16.3,7.2,-1.2,-12.2,58,40,25,30.06,29.91,13,2,13,0.00
2013-2-5,31.5,23.6,18.9,11.7,3.7,-5.3,66,44,23,29.97,29.88,8,1,8,0.00
2013-2-6,33.1,22.7,8.6,16.6,0.1,-7.9,63,38,23,30.39,29.94,11,2,11,0.04
2013-2-7,45.1,29.3,8.4,13.4,1.1,-8.1,55,30,20,30.36,29.94,12,3,12,0.09
2013-2-8,36.3,29.3,19.6,32.7,14.0,0.2,89,55,30,30.21,29.79,15,5,15,0.25
2013-2-9,30.6,20.0,10.9,3.2,-0.8,-6.0,58,41,23,30.44,30.21,10,2,10,0.04
2013-2-10,52.2,33.4,14.0,10.4,2.0,-6.1,57,28,18,30.33,29.88,15,4,15,0.00
2013-2-11,54.5,39.3,33.4,38.6,17.2,4.5,83,43,20,29.88,29.71,22,7,22,0.00
2013-2-12,33.4,30.9,29.3,18.0,10.6,5.9,61,43,31,30.09,29.88,18,4,18,0.00
2013-2-13,41.2,30.4,23.5,18.6,8.5,1.5,72,41,21,29.94,29.79,9,1,9,0.00
2013-2-14,39.0,31.9,22.8,29.2,15.8,9.0,78,52,30,29.94,29.82,19,5,19,0.00
2013-2-15,37.4,31.2,23.9,12.7,5.4,-5.2,43,33,25,30.12,29.85,17,3,17,0.00
2013-2-16,30.4,21.9,11.1,6.3,-4.5,-12.1,47,31,23,30.12,29.97,11,2,11,0.00
2013-2-17,21.6,18.7,11.3,1.7,-6.1,-12.7,49,33,25,30.24,29.94,14,2,14,0.00
2013-2-18,45.0,27.3,9.5,6.3,-4.2,-14.6,36,25,20,30.30,29.82,21,4,21,0.00
2013-2-19,47.1,32.2,19.2,32.6,19.2,5.3,95,64,19,29.91,29.65,19,6,19,0.16
2013-2-20,21.7,19.3,16.0,13.8,1.8,-9.7,79,48,25,30.21,29.88,14,4,14,0.00
2013-2-21,27.1,19.6,14.4,1.9,-2.0,-8.2,49,38,24,30.41,30.15,12,2,12,0.00
2013-2-22,36.1,28.2,14.4,27.5,10.4,-1.5,73,48,25,30.33,29.97,19,4,19,0.09
2013-2-23,37.4,32.8,28.8,22.7,14.0,4.6,60,46,30,30.00,29.91,13,3,13,0.08
2013-2-24,30.7,28.2,22.3,15.3,9.7,3.8,73,46,36,30.18,29.91,12,2,12,0.00
2013-2-25,44.1,27.8,16.7,20.2,7.5,0.2,80,48,20,30.27,30.12,10,1,10,0.00
2013-2-26,43.3,33.9,23.5,35.1,13.1,1.6,94,47,20,30.15,29.65,13,3,13,0.58
2013-2-27,40.1,36.4,32.7,39.6,32.0,19.2,98,86,46,29.71,29.59,15,3,15,0.25
2013-2-28,34.2,32.9,31.1,33.3,32.2,28.5,98,97,91,29.88,29.62,9,1,9,0.12
2013-3-1,31.1,27.6,23.9,28.5,13.4,6.1,90,56,42,30.03,29.85,9,2,9,0.00
2013-3-2,25.0,23.8,21.9,10.4,6.5,3.5,54,47,41,30.03,29.97,10,2,10,0.00
2013-3-3,29.5,23.9,21.9,17.7,9.1,3.8,75,53,39,30.06,29.94,12,3,12,0.00
2013-3-4,31.6,23.7,19.4,11.6,5.2,-2.6,61,45,25,30.15,30.00,10,2,10,0.00
2013-3-5,39.4,27.1,16.2,16.7,9.8,1.6,80,50,21,30.12,29.82,10,2,10,0.04
2013-3-6,40.3,32.1,26.1,27.9,15.1,4.8,86,51,23,30.18,29.82,10,2,10,0.00
2013-3-7,36.3,32.8,30.9,35.3,30.6,20.5,98,92,64,30.36,30.15,8,1,8,0.05
2013-3-8,43.0,33.4,27.3,27.8,21.1,4.4,94,64,23,30.44,30.33,10,1,10,0.00
2013-3-9,47.1,35.2,24.1,38.9,20.5,6.5,98,63,22,30.44,30.15,8,1,9,0.00
2013-3-10,69.3,56.4,46.4,22.5,13.0,6.4,22,18,15,30.15,29.97,18,6,18,0.00
2013-3-11,60.3,54.7,42.4,45.6,17.8,11.1,97,28,17,29.97,29.68,17,5,17,0.49
2013-3-12,42.4,35.7,32.7,41.4,20.1,8.7,96,54,36,30.00,29.79,14,4,14,0.04
2013-3-13,33.3,29.7,25.3,21.1,10.8,-4.3,81,46,23,30.09,29.88,17,4,17,0.00
2013-3-14,34.3,27.8,23.5,7.3,0.3,-5.8,43,31,23,30.24,30.06,19,4,19,0.00
2013-3-15,34.9,32.0,24.8,33.1,19.5,2.2,98,66,31,30.09,29.91,14,2,14,0.00
2013-3-16,33.3,28.6,20.8,32.8,17.5,4.5,98,65,41,30.03,29.79,10,1,10,0.05
2013-3-17,35.2,28.8,20.8,17.1,4.9,-4.2,66,38,22,30.27,30.03,8,1,8,0.08
2013-3-18,36.7,33.3,24.1,31.8,16.5,-0.9,83,51,28,30.27,29.65,25,7,25,0.28
2013-3-19,36.5,29.8,25.2,36.0,18.4,4.6,98,65,35,29.94,29.71,18,4,18,0.08
2013-3-20,33.1,27.1,23.2,14.1,4.7,-4.4,56,38,23,29.97,29.88,16,4,16,0.08
2013-3-21,28.6,24.1,18.1,24.6,10.6,-4.6,94,59,26,29.91,29.85,16,3,16,0.08
2013-3-22,30.4,27.3,25.3,24.1,11.6,6.9,90,53,40,30.06,29.85,8,2,10,0.00
2013-3-23,39.7,31.6,26.8,13.8,9.9,3.5,52,40,23,30.12,30.00,10,1,10,0.08
2013-3-24,38.3,29.4,18.7,26.2,10.8,-1.0,87,49,21,30.09,29.65,13,2,13,0.08
2013-3-25,37.6,32.6,28.6,26.9,19.6,10.1,89,60,39,29.85,29.59,13,3,13,0.08
2013-3-26,41.7,34.9,30.0,29.3,22.4,17.2,91,62,41,30.09,29.82,12,2,12,0.08
2013-3-27,38.8,34.7,32.7,32.2,20.4,12.2,95,58,34,30.18,30.06,14,3,14,0.08
2013-3-28,39.2,34.4,32.2,37.6,28.4,16.4,98,82,45,30.30,30.12,10,1,10,0.12
2013-3-29,48.2,38.5,27.1,23.4,14.0,5.0,64,38,22,30.30,30.24,14,2,14,0.08
2013-3-30,54.9,38.6,23.4,18.7,10.7,1.6,77,37,18,30.27,30.06,10,1,10,0.08
2013-3-31,55.2,46.9,40.3,44.6,18.4,3.8,98,38,18,30.06,29.71,15,4,15,0.08
2013-4-1,47.3,35.3,28.9,39.4,12.4,-2.5,95,44,21,30.06,29.68,15,4,15,0.09
2013-4-2,37.0,31.2,26.4,5.9,-1.0,-6.0,32,25,22,30.21,30.03,15,4,15,0.08
2013-4-3,36.3,30.2,21.2,3.7,-0.7,-5.4,46,26,22,30.47,30.18,17,3,17,0.08
2013-4-4,56.1,34.5,21.0,12.3,3.1,-5.0,47,28,17,30.39,30.00,9,2,9,0.00
2013-4-5,44.2,36.5,27.1,16.6,8.1,-2.7,41,31,21,30.24,29.94,13,2,13,0.08
2013-4-6,52.2,37.8,19.8,25.4,9.8,1.8,88,38,18,30.33,30.00,13,2,13,0.08
2013-4-7,68.2,54.1,35.4,28.2,16.2,9.7,73,24,15,30.12,29.82,26,5,26,0.08
2013-4-8,70.5,53.4,30.7,43.3,26.3,17.4,98,47,17,30.12,29.91,20,3,20,0.08
2013-4-9,63.3,51.0,41.7,42.1,31.4,22.9,83,50,24,30.21,29.94,21,3,21,0.08
2013-4-10,54.1,44.8,39.4,53.2,43.2,34.4,98,95,56,30.03,29.91,13,2,13,0.58
2013-4-11,40.5,38.4,35.6,39.9,37.8,35.1,98,98,96,30.06,29.74,17,3,17,0.08
2013-4-12,45.1,40.6,37.8,44.6,37.0,26.2,98,88,56,29.88,29.56,15,3,15,0.25
2013-4-13,44.2,39.5,35.2,38.8,31.3,22.0,98,74,44,30.03,29.85,14,4,14,0.08
2013-4-14,47.1,40.4,35.2,32.1,26.4,18.9,84,60,37,30.18,30.03,10,2,10,0.08
2013-4-15,75.6,61.3,43.0,30.9,22.3,18.3,62,23,15,30.12,30.00,18,6,18,0.21
2013-4-16,66.6,55.3,47.5,58.7,42.4,22.6,98,70,24,30.27,30.03,22,4,22,0.38
2013-4-17,56.5,48.9,39.4,47.0,30.1,10.6,98,56,18,30.39,30.12,14,2,14,0.08
2013-4-18,84.7,68.6,43.2,54.8,35.5,23.2,90,35,13,30.18,29.79,25,6,25,0.08
2013-4-19,70.5,53.8,40.5,43.7,33.0,19.4,98,51,22,29.85,29.50,23,6,23,0.16
2013-4-20,41.9,36.4,29.5,33.7,19.8,10.4,98,53,30,30.44,29.85,18,4,18,0.08
2013-4-21,43.0,34.8,23.4,34.5,17.1,6.1,98,55,23,30.65,30.44,12,2,12,0.08
2013-4-22,64.4,49.5,31.6,27.0,13.0,7.3,80,26,15,30.50,30.30,14,4,14,0.08
2013-4-23,72.1,58.1,41.7,24.4,14.8,6.2,26,18,15,30.30,29.97,17,5,17,0.08
2013-4-24,64.4,48.6,35.1,52.8,32.9,12.5,98,65,15,30.15,29.79,22,5,22,0.54
2013-4-25,55.6,41.8,33.3,39.4,29.7,9.7,98,71,17,30.36,30.15,19,4,19,0.00
2013-4-26,55.4,43.1,30.7,44.6,21.6,6.8,98,54,18,30.53,30.36,10,1,10,0.00
2013-4-27,68.4,53.1,35.6,29.2,19.0,10.0,74,31,15,30.44,30.21,9,2,9,0.00
2013-4-28,64.8,57.3,53.4,53.8,31.1,11.3,95,48,17,30.21,29.97,17,5,17,0.08
2013-4-29,63.0,56.4,52.3,57.4,52.0,46.5,98,86,61,30.06,29.94,16,3,16,0.08
2013-4-30,74.8,63.9,54.5,56.5,45.4,23.1,98,59,16,30.24,30.06,15,4,15,0.00
2013-5-1,80.4,65.6,56.7,43.0,32.4,18.5,60,33,15,30.41,30.24,14,3,14,0.00
2013-5-2,78.6,66.1,56.7,27.0,19.0,12.4,19,16,14,30.39,30.27,14,3,14,0.00
2013-5-3,80.8,67.8,57.2,28.6,19.6,12.8,17,16,14,30.30,30.24,16,4,16,0.00
2013-5-4,76.1,61.8,48.6,27.6,18.9,12.4,44,20,15,30.27,30.21,13,4,13,0.00
2013-5-5,74.3,59.7,42.4,51.0,27.4,11.9,98,38,15,30.21,30.12,14,2,14,0.00
2013-5-6,70.7,60.7,51.3,33.3,17.6,10.9,40,19,14,30.18,30.12,17,3,17,0.00
2013-5-7,75.4,64.3,51.4,54.0,36.6,23.1,95,42,16,30.15,30.09,10,2,10,0.00
2013-5-8,72.3,61.4,54.5,58.4,43.1,29.0,98,58,22,30.09,30.03,7,0,7,0.17
2013-5-9,72.7,61.1,54.5,62.0,47.5,21.2,98,69,16,30.09,29.97,8,1,8,0.00
2013-5-10,76.1,63.1,54.5,62.0,46.7,23.8,98,61,24,30.03,29.82,19,3,19,0.54
2013-5-11,54.0,46.8,43.3,53.2,45.6,42.2,98,96,84,29.91,29.82,19,2,19,0.08
2013-5-12,50.0,43.0,35.4,42.9,22.4,5.4,97,50,21,30.09,29.88,13,3,15,0.00
2013-5-13,48.9,40.7,32.2,22.1,8.8,1.0,66,27,21,30.27,30.03,11,2,11,0.00
2013-5-14,52.0,43.8,31.5,43.2,20.4,4.5,93,44,19,30.18,29.88,15,3,15,0.08
2013-5-15,80.6,63.8,50.4,53.6,29.9,18.8,95,31,14,29.91,29.74,25,4,25,0.00
2013-5-16,76.3,60.7,47.3,59.8,36.0,15.8,98,53,15,30.09,29.85,13,1,13,0.00
2013-5-17,66.7,56.5,43.2,45.8,30.7,17.1,92,43,17,30.24,30.06,10,2,10,0.00
2013-5-18,75.6,63.4,52.9,41.0,25.8,19.3,63,26,15,30.24,30.15,12,2,12,0.00
2013-5-19,83.8,70.6,55.6,52.5,42.3,32.2,73,40,19,30.15,30.09,14,3,14,0.00
2013-5-20,88.5,74.9,62.8,62.7,50.8,33.6,93,50,15,30.12,30.00,11,3,11,0.00
2013-5-21,89.6,75.9,65.1,69.0,56.9,28.8,98,61,13,30.00,29.91,15,3,15,0.38
2013-5-22,88.3,76.3,65.1,67.4,50.6,26.1,98,52,13,29.94,29.82,16,3,16,0.08
2013-5-23,73.0,60.3,43.7,65.9,58.9,43.2,98,95,61,30.03,29.82,12,2,12,0.71
2013-5-24,49.3,43.2,39.6,43.3,35.0,28.0,98,75,48,30.30,30.03,13,3,13,0.04
2013-5-25,58.5,48.8,36.0,45.2,33.1,25.9,98,58,33,30.36,30.27,12,2,12,0.00
2013-5-26,64.2,50.5,36.0,50.0,28.7,13.4,98,53,16,30.33,30.24,11,1,11,0.00
2013-5-27,67.3,53.9,37.4,46.5,31.4,18.5,98,52,17,30.30,30.18,8,1,8,0.00
2013-5-28,77.7,63.5,52.9,67.4,59.2,39.0,98,87,49,30.18,29.97,13,3,13,2.03
2013-5-29,83.1,74.3,64.9,66.0,53.9,41.4,98,52,24,30.12,29.97,16,3,16,0.00
2013-5-30,87.1,75.7,67.6,70.2,58.2,46.7,93,57,26,30.24,30.12,8,1,8,0.08
2013-5-31,88.7,75.5,65.5,69.2,50.1,28.8,98,50,13,30.15,30.03,18,3,18,0.46
2013-6-1,86.5,72.8,65.8,68.9,63.6,54.3,98,77,39,30.06,29.85,18,4,18,1.24
2013-6-2,76.1,67.7,58.1,67.1,57.9,47.8,98,74,42,30.00,29.79,19,3,19,0.54
2013-6-3,60.1,53.8,45.1,51.3,39.3,31.2,95,60,36,30.12,29.97,10,1,10,0.00
2013-6-4,65.8,53.9,41.7,57.5,33.5,18.5,98,59,18,30.24,30.09,8,1,8,0.00
2013-6-5,70.7,59.4,45.1,54.0,34.7,19.6,98,51,17,30.21,30.03,13,2,13,0.00
2013-6-6,62.2,58.1,54.5,61.7,56.3,44.9,98,94,59,30.03,29.14,7,0,7,1.08
2013-6-7,60.3,56.4,53.6,59.3,55.1,52.0,98,95,77,29.94,29.88,8,1,8,0.20
2013-6-8,68.4,58.9,50.5,59.0,53.5,44.5,98,84,46,30.18,29.91,9,1,9,0.20
2013-6-9,77.4,64.0,48.7,62.9,42.6,23.9,98,57,16,30.21,30.09,9,1,9,0.20
2013-6-10,73.0,68.7,64.4,71.3,63.3,42.2,98,86,37,30.09,29.82,10,2,10,0.33
2013-6-11,80.2,62.9,0.0,70.0,59.5,-99.9,98,91,50,29.97,29.79,11,-12,11,0.26
2013-6-12,81.7,67.6,58.6,65.9,60.6,-99.9,98,81,55,30.00,29.82,6,-4,6,1.71
2013-6-13,72.5,63.5,56.3,67.4,61.1,51.6,98,92,68,29.88,29.53,12,2,12,0.83
2013-6-14,70.5,61.4,53.2,61.8,54.2,48.4,98,80,50,30.09,29.85,10,0,10,0.08
2013-6-15,77.7,64.2,49.1,62.4,40.1,23.1,98,53,15,30.12,30.03,8,1,8,0.00
2013-6-16,75.4,68.9,63.7,65.9,54.4,43.1,97,62,42,30.03,29.85,17,3,17,0.00
2013-6-17,81.0,70.4,60.4,63.8,48.7,29.7,98,55,18,30.03,29.91,10,1,10,0.04
2013-6-18,69.3,62.5,50.9,61.8,54.1,39.6,98,77,41,30.09,29.91,10,2,12,0.30
2013-6-19,71.4,59.3,46.6,62.6,41.0,18.8,98,61,17,30.21,30.09,9,1,9,0.00
2013-6-20,75.6,62.8,50.4,52.0,35.5,22.8,98,44,15,30.33,30.18,8,1,8,0.00
2013-6-21,85.3,69.4,51.6,56.3,39.7,24.7,98,46,13,30.33,30.21,6,1,6,0.00
2013-6-22,89.8,78.2,66.0,51.8,41.1,32.9,60,30,15,30.24,30.12,12,2,12,0.00
2013-6-23,89.2,78.5,70.3,67.0,47.9,35.9,87,38,18,30.18,30.12,10,1,10,0.00
2013-6-24,86.4,77.8,69.3,73.9,49.8,36.2,100,41,19,30.21,30.09,10,1,10,0.00
2013-6-25,81.7,73.6,66.6,69.8,59.1,48.5,100,64,33,30.09,29.94,17,2,17,0.25
2013-6-26,79.5,71.6,65.7,72.6,65.2,57.3,98,83,47,29.97,29.88,13,1,13,0.24
2013-6-27,73.6,68.8,65.8,72.5,67.8,65.0,98,97,89,29.88,29.74,8,0,8,1.16
2013-6-28,75.9,68.3,64.4,70.6,63.9,54.6,98,87,51,29.74,29.59,9,0,9,0.13
2013-6-29,74.8,67.2,63.5,67.4,61.6,54.0,97,84,51,29.76,29.56,8,0,8,1.16
2013-6-30,75.9,68.4,61.3,68.3,60.5,53.3,96,77,49,29.97,29.76,9,1,9,0.00
2013-7-1,68.7,66.2,64.0,65.5,63.1,60.7,94,90,78,30.06,29.91,10,2,10,0.25
2013-7-2,75.9,67.6,60.6,65.9,61.8,58.8,95,82,61,30.12,30.00,10,1,10,0.04
2013-7-3,88.7,74.6,64.8,73.1,65.0,42.2,94,75,21,30.21,30.09,11,1,11,0.29
2013-7-4,83.3,73.6,68.7,72.0,67.3,61.8,92,82,49,30.21,30.15,10,1,10,0.42
2013-7-5,82.6,72.5,67.5,71.1,67.1,62.8,91,84,55,30.18,30.15,11,1,11,0.25
2013-7-6,85.3,75.5,68.0,73.3,66.6,61.1,95,75,49,30.18,30.09,8,1,8,0.16
2013-7-7,78.6,72.5,67.6,68.0,65.2,61.6,91,79,60,30.12,30.06,10,2,10,0.04
2013-7-8,84.9,74.7,66.9,67.9,64.5,60.2,89,73,46,30.12,30.06,9,1,9,0.34
2013-7-9,83.8,74.0,68.7,71.9,67.8,65.0,91,81,59,30.09,30.00,12,2,12,0.53
2013-7-10,90.3,74.1,67.8,76.1,68.3,59.8,90,83,51,30.00,29.82,23,3,23,0.58
2013-7-11,75.0,68.0,60.1,65.0,55.8,47.7,92,68,41,30.09,29.94,9,1,9,0.04
2013-7-12,80.6,69.4,57.9,69.2,58.1,49.8,96,70,42,30.18,30.06,12,1,12,0.04
2013-7-13,79.7,70.7,59.0,69.1,61.0,55.5,93,74,48,30.30,30.15,10,1,10,0.04
2013-7-14,88.7,77.4,66.6,70.0,64.0,55.5,90,67,33,30.33,30.27,9,1,9,0.04
2013-7-15,88.2,78.6,70.0,72.7,69.3,64.8,89,75,51,30.36,30.30,9,1,9,0.04
2013-7-16,90.9,79.6,70.2,78.4,66.7,51.9,92,68,29,30.36,30.30,6,1,6,0.04
2013-7-17,90.0,80.7,72.0,75.8,67.9,61.8,89,67,42,30.33,30.21,10,1,10,0.04
2013-7-18,89.4,81.6,74.7,76.0,70.1,63.0,87,70,47,30.21,30.09,9,1,9,0.04
2013-7-19,92.3,83.2,74.5,69.0,62.3,50.7,76,52,27,30.09,29.91,13,3,13,0.04
2013-7-20,78.6,71.7,66.0,70.9,65.3,53.5,90,81,48,30.00,29.82,14,2,14,0.92
2013-7-21,82.4,72.1,64.0,75.4,58.4,47.8,97,66,37,30.09,29.97,9,1,9,0.04
2013-7-22,80.2,69.8,61.2,71.7,63.3,58.2,96,81,54,30.06,29.82,6,0,6,0.33
2013-7-23,83.7,70.9,64.0,74.2,64.2,58.1,96,81,46,29.85,29.74,10,1,10,0.54
2013-7-24,69.3,62.3,52.9,58.1,47.1,33.4,92,59,28,30.09,29.85,10,2,10,0.04
2013-7-25,74.7,63.1,51.3,54.4,39.7,23.1,95,54,16,30.15,30.06,10,1,10,0.04
2013-7-26,78.4,66.8,54.9,59.6,44.9,29.0,94,55,18,30.15,30.03,8,1,8,0.04
2013-7-27,71.4,66.4,61.3,66.4,60.8,55.5,91,83,58,30.06,29.85,10,1,10,0.70
2013-7-28,73.4,65.2,59.7,65.9,48.0,27.5,96,60,19,30.03,29.88,9,1,9,0.29
2013-7-29,73.9,62.9,56.8,57.4,49.8,34.6,92,65,24,30.21,30.03,9,1,9,0.04
2013-7-30,75.0,64.9,55.8,65.8,53.2,42.3,98,70,36,30.24,30.18,9,1,9,0.04
2013-7-31,81.5,68.7,57.6,59.8,53.7,35.9,92,63,20,30.21,29.97,9,1,9,0.04
2013-8-1,77.2,69.2,63.1,66.5,60.9,48.9,93,77,42,30.00,29.88,11,2,11,0.21
2013-8-2,77.2,68.8,61.5,66.8,53.9,42.1,96,63,31,30.00,29.94,12,2,12,0.04
2013-8-3,75.9,69.4,60.4,65.2,52.6,32.1,91,61,23,30.06,29.94,8,1,8,0.04
2013-8-4,72.5,64.8,58.1,59.8,52.5,42.7,93,66,46,30.15,30.03,10,2,10,0.12
2013-8-5,73.4,62.3,49.5,61.6,41.3,22.9,98,57,16,30.15,30.06,7,1,7,0.04
2013-8-6,83.8,68.7,56.7,61.2,47.5,27.0,92,56,14,30.09,30.03,9,1,9,0.04
2013-8-7,83.1,72.3,63.9,71.3,62.1,57.3,90,71,46,30.03,29.97,14,3,14,0.04
2013-8-8,85.1,74.3,69.8,73.8,69.0,64.6,92,84,51,30.06,29.94,13,2,13,0.09
2013-8-9,76.3,68.8,59.9,68.7,60.7,43.7,92,77,38,30.06,29.94,8,1,8,0.04
2013-8-10,76.3,67.0,59.2,60.1,43.7,23.9,93,53,15,30.18,30.03,7,1,7,0.04
2013-8-11,80.2,66.5,54.5,67.2,42.9,23.5,98,56,15,30.18,30.09,8,1,8,0.04
2013-8-12,74.3,66.1,61.0,65.9,59.5,51.1,91,80,45,30.12,29.88,8,0,8,0.12
2013-8-13,69.4,64.1,58.3,64.8,53.0,36.8,97,70,42,30.03,29.82,10,2,10,0.71
2013-8-14,69.8,61.8,55.9,51.1,40.8,27.8,83,49,23,30.15,30.00,12,2,12,0.04
2013-8-15,72.7,60.1,49.6,55.6,46.4,30.5,98,67,23,30.18,30.12,8,0,8,0.04
2013-8-16,77.5,63.4,50.9,60.6,42.0,23.1,96,59,15,30.24,30.15,6,0,6,0.04
2013-8-17,82.2,65.6,51.8,65.0,45.5,27.0,98,60,14,30.30,30.24,8,0,8,0.04
2013-8-18,80.4,68.4,57.9,63.0,54.0,35.1,92,65,20,30.27,30.18,9,1,9,0.04
2013-8-19,78.4,68.0,59.2,69.9,61.1,51.3,92,80,45,30.21,30.12,8,1,8,0.04
2013-8-20,82.8,69.6,58.3,65.0,53.7,31.1,94,66,16,30.24,30.12,9,1,9,0.04
2013-8-21,86.2,72.9,62.1,67.0,54.9,36.0,91,62,19,30.21,30.12,8,1,8,0.04
2013-8-22,81.5,73.0,67.3,71.1,66.8,62.8,91,81,66,30.12,30.06,11,2,11,0.04
2013-8-23,78.4,70.2,57.7,68.5,56.7,41.1,96,66,33,30.24,30.06,10,1,10,0.04
2013-8-24,77.7,65.0,54.7,57.4,45.8,24.4,94,60,15,30.36,30.24,9,1,9,0.04
2013-8-25,84.6,69.7,56.1,63.5,45.7,27.0,97,54,13,30.36,30.24,9,2,9,0.04
2013-8-26,87.8,74.5,68.2,67.2,49.4,29.9,92,48,13,30.24,30.03,19,3,19,0.54
2013-8-27,82.6,74.2,69.3,75.8,68.7,63.9,95,84,61,30.03,29.97,12,1,12,0.04
2013-8-28,78.8,72.7,68.5,74.2,68.3,64.7,90,86,73,30.03,29.88,10,1,10,0.83
2013-8-29,84.0,73.7,66.6,76.4,65.2,60.7,97,77,47,30.12,30.03,8,1,8,0.04
2013-8-30,88.0,74.5,65.8,73.6,62.7,52.3,98,70,32,30.09,29.85,9,1,9,0.00
2013-8-31,80.6,72.8,67.5,72.1,68.2,64.2,91,86,65,29.91,29.79,8,1,8,0.50
2013-9-1,84.6,71.8,65.5,72.0,65.6,60.0,96,82,47,29.88,29.82,10,0,10,0.79
2013-9-2,78.1,70.8,65.1,72.7,63.8,53.5,94,79,62,29.88,29.79,10,1,10,0.21
2013-9-3,65.5,63.0,58.8,58.3,53.8,49.4,90,72,62,30.03,29.88,10,2,10,0.21
2013-9-4,75.7,66.0,57.2,60.5,52.6,45.0,92,65,37,30.09,30.00,12,2,12,0.21
2013-9-5,70.7,63.8,53.4,57.7,35.9,23.2,83,37,20,30.24,30.03,8,1,8,0.21
2013-9-6,71.1,57.7,45.1,52.8,32.6,20.4,91,46,17,30.27,30.12,8,1,8,0.21
2013-9-7,78.6,64.2,52.7,66.0,47.1,26.1,92,61,15,30.12,29.94,11,2,11,0.21
2013-9-8,71.2,65.0,51.8,66.5,52.2,28.9,93,70,23,30.12,29.94,12,2,12,0.21
2013-9-9,77.2,64.3,51.6,69.2,56.0,46.8,93,76,48,30.12,30.03,10,2,10,0.21
2013-9-10,93.9,81.6,72.0,72.9,65.7,50.9,91,63,27,30.15,30.00,10,3,10,0.21
2013-9-11,91.9,81.4,68.5,73.7,66.7,44.7,92,66,21,30.15,30.06,15,2,15,0.33
2013-9-12,74.5,68.1,61.9,69.9,63.0,49.7,94,84,58,30.06,29.88,10,0,10,0.21
2013-9-13,61.9,57.9,52.3,56.1,46.3,37.1,86,66,47,30.09,29.88,10,1,10,0.21
2013-9-14,63.0,54.2,44.2,45.7,34.0,18.6,97,51,19,30.18,30.06,8,1,8,0.21
2013-9-15,69.6,57.7,45.1,57.1,43.9,25.3,98,66,20,30.15,30.09,9,1,9,0.21
2013-9-16,62.8,55.3,45.5,60.4,52.3,44.4,98,90,75,30.33,30.12,12,0,12,0.21
2013-9-17,66.9,52.1,37.6,49.6,38.9,20.3,98,70,18,30.41,30.27,8,1,8,0.21
2013-9-18,77.4,59.9,46.8,54.2,39.4,23.8,98,54,15,30.27,30.12,9,1,9,0.21
2013-9-19,80.8,66.4,56.5,62.7,54.9,44.8,96,71,30,30.12,30.06,11,2,11,0.21
2013-9-20,78.8,70.3,63.1,70.4,66.1,61.1,94,87,70,30.06,29.85,16,4,16,0.21
2013-9-21,70.2,62.9,52.7,67.7,60.2,49.8,97,91,81,29.85,29.71,9,1,10,1.82
2013-9-22,60.6,55.2,52.0,51.1,42.6,35.9,80,63,47,30.06,29.82,8,1,8,0.21
2013-9-23,60.1,51.8,41.9,44.8,38.2,31.7,96,62,36,30.18,30.06,8,0,8,0.21
2013-9-24,67.6,52.3,40.6,52.8,43.5,39.9,98,76,40,30.12,30.00,8,1,8,0.21
2013-9-25,70.2,54.9,43.5,58.4,43.7,33.1,98,72,26,30.00,29.94,4,0,6,0.00
2013-9-26,71.4,56.3,44.1,60.6,40.8,20.7,98,67,17,30.15,29.97,11,1,11,0.00
2013-9-27,71.4,58.0,47.3,63.2,47.0,38.1,98,72,33,30.27,30.12,10,1,10,0.00
2013-9-28,78.1,63.4,51.8,54.3,42.5,23.1,96,57,15,30.27,30.15,11,2,11,0.00
2013-9-29,73.6,63.6,54.3,57.9,41.9,33.5,81,48,24,30.15,30.03,14,3,14,0.00
2013-9-30,67.8,62.8,57.6,64.8,59.1,52.7,94,88,65,30.06,30.00,10,1,10,0.00
2013-10-1,76.8,64.6,57.4,64.1,57.7,51.7,97,81,45,30.09,30.00,9,1,10,0.00
2013-10-2,75.2,64.5,52.9,64.6,58.3,49.8,95,81,50,30.12,30.00,11,2,11,0.00
2013-10-3,82.2,63.4,50.4,64.9,55.8,48.9,98,80,34,30.12,30.03,8,1,8,0.50
2013-10-4,78.6,69.6,65.1,67.8,63.4,58.8,92,82,55,30.09,30.03,11,2,11,0.00
2013-10-5,79.9,68.0,62.6,74.3,62.8,58.0,96,85,50,30.09,30.00,6,0,6,0.46
2013-10-6,82.4,73.7,65.7,70.0,60.2,50.5,92,66,36,30.00,29.76,17,3,17,0.00
2013-10-7,65.7,55.2,49.1,59.9,46.8,33.5,98,76,40,30.09,29.74,14,2,14,0.83
2013-10-8,67.8,54.3,44.8,57.4,39.0,17.3,98,68,17,30.33,30.09,8,1,8,0.04
2013-10-9,73.8,56.3,46.8,48.7,35.9,20.6,95,54,16,30.36,30.24,9,2,9,0.00
2013-10-10,68.7,55.0,42.4,49.3,34.4,20.1,96,53,17,30.24,30.12,9,1,9,0.00
2013-10-11,72.7,56.2,43.9,54.4,36.9,20.1,98,61,16,30.15,30.09,6,1,9,0.00
2013-10-12,75.6,60.5,44.6,58.1,47.2,38.5,98,68,31,30.18,30.09,8,1,8,0.00
2013-10-13,71.4,63.7,57.0,61.5,52.6,44.9,96,69,47,30.30,30.15,12,2,12,0.12
2013-10-14,64.8,55.7,43.3,55.9,38.3,17.3,97,59,18,30.36,30.27,12,1,12,0.00
2013-10-15,70.9,58.7,43.3,60.3,52.0,42.5,98,80,49,30.27,29.94,13,1,13,0.00
2013-10-16,69.6,61.4,55.4,61.0,56.7,46.5,97,85,64,29.94,29.82,17,3,17,0.67
2013-10-17,65.5,53.7,47.8,51.7,46.8,35.6,98,81,34,29.91,29.76,13,2,13,0.25
2013-10-18,65.3,53.5,47.5,48.6,37.8,17.6,98,64,18,29.97,29.79,13,3,13,0.04
2013-10-19,55.0,49.2,42.6,48.7,38.5,30.7,98,70,40,29.91,29.71,11,3,11,0.74
2013-10-20,59.9,47.5,39.9,44.0,36.2,16.1,98,70,19,30.00,29.85,13,3,13,0.79
2013-10-21,65.7,55.3,48.7,50.9,26.5,14.4,94,38,16,30.00,29.82,18,5,18,0.00
2013-10-22,50.4,45.4,41.5,48.7,32.1,21.2,97,63,36,29.91,29.82,13,2,13,0.21
2013-10-23,45.9,41.0,37.6,44.0,34.2,14.8,98,80,33,29.88,29.74,12,2,12,0.33
2013-10-24,43.9,37.1,34.0,41.0,35.3,31.6,98,93,76,30.06,29.85,12,3,12,0.17
2013-10-25,50.0,42.4,36.7,41.0,33.5,25.4,98,73,40,30.27,30.06,12,3,12,0.25
2013-10-26,44.6,41.2,38.1,42.4,20.8,8.1,98,47,22,30.15,29.79,22,5,22,0.16
2013-10-27,48.7,42.9,34.9,41.2,24.2,6.4,94,53,19,30.06,29.88,11,2,11,0.00
2013-10-28,57.0,43.4,36.0,37.4,19.1,12.0,88,39,25,30.30,30.03,11,2,11,0.00
2013-10-29,55.9,42.7,29.5,46.0,17.9,5.0,98,43,18,30.39,30.24,8,1,8,0.00
2013-10-30,67.5,49.3,35.4,39.5,21.1,11.6,85,36,17,30.24,30.06,8,1,8,0.00
2013-10-31,66.0,60.2,54.9,60.9,55.6,29.1,96,86,36,30.06,29.38,26,6,26,0.71
2013-11-1,61.3,54.2,49.5,59.0,45.8,36.8,95,74,56,29.71,29.29,20,4,26,0.20
2013-11-2,49.5,45.7,40.3,47.9,44.4,39.8,98,95,84,30.00,29.65,10,2,10,0.71
2013-11-3,45.3,36.7,26.2,39.8,25.1,12.7,98,66,31,30.47,30.00,10,1,10,0.00
2013-11-4,45.9,36.3,26.8,22.7,9.9,2.1,80,38,20,30.56,30.36,13,3,13,0.00
2013-11-5,56.3,48.1,39.9,12.5,8.0,3.2,21,19,17,30.41,30.27,12,4,12,0.00
2013-11-6,66.4,56.0,46.2,57.1,24.8,6.4,95,38,17,30.27,29.88,23,5,23,0.33
2013-11-7,55.4,42.6,37.6,53.7,27.9,4.7,98,63,21,30.09,29.91,13,3,13,0.38
2013-11-8,46.2,39.4,34.0,34.8,11.3,2.4,96,34,20,30.24,30.00,13,3,13,0.04
2013-11-9,54.9,44.5,32.7,46.1,12.1,2.5,93,30,18,30.21,29.88,20,5,20,0.12
2013-11-10,50.7,44.9,41.0,44.8,23.5,5.4,96,50,20,30.24,29.88,18,4,18,0.08
2013-11-11,45.1,38.9,29.1,39.9,19.1,5.1,98,53,20,30.21,30.03,18,3,18,0.38
2013-11-12,36.9,31.1,27.9,29.5,13.5,0.0,98,51,25,30.41,30.12,15,3,15,0.00
2013-11-13,39.2,33.4,29.1,10.4,1.7,-1.4,44,26,21,30.47,30.18,22,4,22,0.00
2013-11-14,49.5,39.9,30.7,8.9,3.1,-2.7,23,21,19,30.21,30.06,21,6,22,0.16
2013-11-15,54.1,46.4,39.4,11.4,7.0,2.6,21,20,18,30.15,30.06,17,4,17,0.00
2013-11-16,61.2,52.0,41.5,25.2,16.2,5.1,38,24,19,30.18,29.97,16,4,16,0.00
2013-11-17,63.7,58.6,51.6,58.0,48.3,23.2,95,73,25,29.97,29.44,22,8,27,0.63
2013-11-18,53.4,44.2,36.9,39.1,26.9,15.5,70,50,41,30.03,29.56,20,6,21,0.00
2013-11-19,37.8,34.3,25.3,25.5,17.6,12.7,96,52,38,30.39,30.03,12,2,12,0.00
2013-11-20,51.6,36.2,22.6,29.2,12.9,1.0,98,50,19,30.47,30.33,14,3,14,0.00
2013-11-21,43.5,39.5,36.7,41.0,22.2,1.0,97,59,21,30.39,30.21,17,4,17,0.12
2013-11-22,48.7,43.8,34.0,47.2,40.9,20.0,98,90,56,30.27,30.09,13,3,13,0.17
2013-11-23,37.0,29.9,20.3,22.4,12.6,-8.2,85,49,24,30.27,30.15,20,4,20,0.00
2013-11-24,25.3,22.0,19.0,11.2,-3.4,-8.2,69,34,24,30.47,30.27,17,4,17,0.00
2013-11-25,32.2,25.4,16.2,12.3,-2.4,-9.1,51,30,23,30.41,30.12,18,6,18,0.00
2013-11-26,35.6,32.7,31.6,31.5,14.5,-0.8,94,51,23,30.18,29.82,14,2,14,0.00
2013-11-27,33.4,29.5,24.6,32.8,17.8,3.3,98,65,32,30.03,29.74,17,2,17,0.00
2013-11-28,27.9,25.6,23.7,10.6,4.9,0.6,56,41,34,30.36,30.03,12,4,17,0.00
2013-11-29,40.6,27.3,20.8,25.8,10.3,-3.6,84,53,21,30.68,30.36,8,1,9,0.04
2013-11-30,39.2,30.3,21.6,7.7,3.4,-0.6,45,32,21,30.59,30.18,15,5,15,0.04
2013-12-1,39.9,36.9,33.8,15.2,11.2,7.0,41,34,29,30.18,29.97,12,3,12,0.12
2013-12-2,40.3,34.6,26.1,23.0,17.6,14.7,86,51,39,30.00,29.91,6,0,6,0.05
2013-12-3,47.8,33.3,24.1,37.1,22.4,10.0,96,69,24,29.97,29.88,6,0,6,0.00
2013-12-4,57.7,49.2,41.7,33.2,24.4,19.8,70,38,25,29.97,29.82,19,3,19,0.00
2013-12-5,63.0,49.5,32.9,40.7,28.7,18.3,67,45,36,30.09,29.79,17,5,17,0.00
2013-12-6,35.1,31.5,27.3,31.9,19.5,9.3,96,64,38,30.33,30.06,6,0,8,0.00
2013-12-7,28.2,24.7,22.8,23.1,3.6,-5.4,82,41,27,30.53,30.30,10,1,10,0.00
2013-12-8,28.8,25.2,21.6,9.9,1.1,-5.9,45,35,23,30.53,30.06,15,2,15,0.00
2013-12-9,35.6,32.6,27.1,33.8,17.3,1.2,93,56,32,30.12,29.88,14,4,14,0.08
2013-12-10,29.5,25.0,21.9,9.3,0.5,-6.4,53,35,23,30.12,29.97,18,4,18,0.00
2013-12-11,23.9,21.5,18.1,16.4,3.0,-11.4,76,45,25,30.33,30.12,16,4,16,0.00
2013-12-12,19.4,16.9,13.6,-1.8,-9.4,-13.6,48,30,25,30.39,30.12,15,4,15,0.00
2013-12-13,28.6,23.1,17.8,9.3,0.5,-12.1,51,37,25,30.30,30.09,15,3,15,0.00
2013-12-14,32.4,25.2,18.7,30.3,16.2,2.7,92,69,45,30.27,29.68,7,1,8,0.00
2013-12-15,32.2,25.4,18.5,30.6,20.6,1.1,98,83,44,29.97,29.65,15,2,15,0.00
2013-12-16,22.8,15.2,4.5,6.6,0.8,-10.2,66,53,42,30.18,29.97,12,1,12,0.00
2013-12-17,28.4,24.1,13.6,20.2,11.6,-1.5,77,59,43,30.06,29.88,12,3,13,0.00
2013-12-18,30.4,26.9,24.6,21.1,11.0,-0.1,79,52,33,30.15,29.97,22,5,22,0.00
2013-12-19,46.2,38.7,26.8,19.1,8.3,-3.7,39,28,22,30.06,29.88,19,4,22,0.08
2013-12-20,53.4,45.9,41.7,52.3,35.7,16.5,98,71,32,29.97,29.82,20,6,20,0.46
2013-12-21,56.3,46.7,36.7,55.2,45.6,35.7,98,96,94,29.88,29.65,14,3,15,1.57
2013-12-22,61.0,44.3,34.2,57.2,41.8,33.2,98,91,63,30.03,29.53,27,4,27,0.42
2013-12-23,38.7,33.2,29.1,37.6,26.6,12.6,97,78,48,30.33,30.00,15,3,15,0.04
2013-12-24,29.1,21.9,18.1,22.5,8.9,-3.3,93,59,35,30.50,30.18,15,3,15,0.00
2013-12-25,26.1,20.4,14.2,2.1,-4.3,-9.4,50,34,24,30.50,30.12,14,3,14,0.00
2013-12-26,32.7,27.7,24.6,24.3,10.2,0.1,80,49,32,30.33,30.03,18,4,18,0.00
2013-12-27,37.0,31.6,24.4,20.0,10.0,0.3,59,41,31,30.33,30.12,13,3,13,0.00
2013-12-28,50.9,43.5,36.3,15.5,11.1,8.0,34,26,21,30.18,30.00,19,5,19,0.04
2013-12-29,44.8,40.1,27.0,26.1,13.1,4.5,75,36,20,30.00,29.71,15,4,15,0.00
2013-12-30,26.8,19.5,17.1,19.2,-0.8,-9.0,75,41,28,30.27,29.88,10,2,10,0.00
2013-12-31,21.0,18.8,16.5,11.4,2.0,-6.3,68,48,34,30.27,29.97,15,4,15,0.00
2014-1-1,23.0,18.9,16.7,9.9,4.6,-0.6,66,53,42,30.39,30.15,9,2,10,0.00
2014-1-2,17.2,14.2,8.4,2.7,0.1,-3.3,59,53,45,30.15,29.91,20,5,20,0.00